Time;durP1;ratioP1;P1;durP2;ratioP2;P2;SDS_P1;SDS_P2;PMS_P1;PMS_P2;Temp;Humidity;BMP_temperature;BMP_pressure;BME280_temperature;BME280_humidity;BME280_pressure;Samples;Min_cycle;Max_cycle;Signal;HPM_P1;HPM_P2
2022/03/29 00:00:17;;;;;;;9.40;5.63;;;11.30;47.80;11.50;96242.00;;;;4980907;28;20241;-92
2022/03/29 00:02:46;;;;;;;8.27;6.03;;;11.20;47.70;11.40;96258.00;;;;4980560;28;20229;-93
2022/03/29 00:05:17;;;;;;;7.63;5.77;;;11.30;48.40;11.40;96253.00;;;;4981570;28;20660;-92
2022/03/29 00:07:45;;;;;;;7.13;5.73;;;12.10;48.20;11.40;96257.00;;;;4981853;28;20225;-92
2022/03/29 00:10:12;;;;;;;9.30;6.50;;;11.90;48.10;11.40;96242.00;;;;4976880;28;20325;-92
2022/03/29 00:12:41;;;;;;;8.73;6.60;;;11.10;47.60;11.30;96233.00;;;;4977229;28;20629;-92
2022/03/29 00:15:09;;;;;;;7.93;5.80;;;11.80;48.10;11.30;96233.00;;;;4978747;28;20211;-92
2022/03/29 00:17:37;;;;;;;8.33;6.13;;;11.10;47.80;11.30;96234.00;;;;4978022;28;20874;-91
2022/03/29 00:20:05;;;;;;;9.67;5.87;;;11.10;47.80;11.30;96240.00;;;;4975294;28;20307;-92
2022/03/29 00:22:33;;;;;;;8.00;5.80;;;11.00;47.90;11.20;96229.00;;;;4975103;28;20295;-91
2022/03/29 00:25:00;;;;;;;9.27;6.10;;;11.00;47.70;11.20;96235.00;;;;4975217;28;20207;-91
2022/03/29 00:27:27;;;;;;;7.23;5.30;;;10.90;47.60;11.20;96219.00;;;;4975366;28;20808;-91
2022/03/29 00:29:56;;;;;;;6.83;5.77;;;10.90;47.60;11.10;96219.00;;;;4976139;28;20219;-91
2022/03/29 00:32:23;;;;;;;6.80;5.23;;;10.90;47.60;11.10;96217.00;;;;4992744;28;20203;-91
2022/03/29 00:34:50;;;;;;;5.93;5.33;;;11.00;47.60;11.10;96220.00;;;;4975631;28;20305;-92
2022/03/29 00:37:17;;;;;;;9.60;5.33;;;10.80;47.60;11.00;96213.00;;;;4975487;28;20260;-91
2022/03/29 00:39:44;;;;;;;7.63;5.77;;;10.80;47.60;11.10;96215.00;;;;4975776;28;20219;-91
2022/03/29 00:42:14;;;;;;;6.87;5.63;;;10.90;47.70;11.00;96203.00;;;;4976139;28;20608;-92
2022/03/29 00:44:41;;;;;;;8.67;6.07;;;11.80;48.40;11.10;96202.00;;;;4975313;28;20314;-92
2022/03/29 00:47:10;;;;;;;7.97;5.83;;;10.80;47.90;11.00;96197.00;;;;4976514;28;20203;-93
2022/03/29 00:49:39;;;;;;;7.00;5.47;;;10.80;47.90;11.00;96199.00;;;;4975564;28;20230;-92
2022/03/29 00:52:07;;;;;;;8.07;6.20;;;10.80;47.90;11.00;96187.00;;;;4974835;28;20299;-92
2022/03/29 00:54:39;;;;;;;7.60;5.67;;;10.70;47.80;11.00;96170.00;;;;4974684;28;20230;-92
2022/03/29 00:57:06;;;;;;;7.33;5.90;;;11.30;48.00;11.00;96198.00;;;;4974836;28;20225;-92
2022/03/29 00:59:34;;;;;;;6.97;5.80;;;10.80;47.70;11.00;96188.00;;;;4974374;28;20215;-92
2022/03/29 01:02:01;;;;;;;8.43;5.50;;;10.70;47.80;11.00;96195.00;;;;4978496;28;20199;-93
2022/03/29 01:04:30;;;;;;;7.27;6.23;;;11.20;48.00;11.10;96180.00;;;;4991095;28;20243;-93
2022/03/29 01:06:59;;;;;;;11.13;6.30;;;11.60;48.30;11.10;96194.00;;;;4989039;28;20192;-93
2022/03/29 01:09:28;;;;;;;7.40;5.33;;;10.90;48.00;11.10;96190.00;;;;4989924;28;20242;-93
2022/03/29 01:11:56;;;;;;;7.40;5.57;;;10.80;47.80;11.00;96181.00;;;;4977896;28;20204;-92
2022/03/29 01:14:25;;;;;;;8.60;6.17;;;10.80;47.80;11.00;96173.00;;;;4974650;28;20298;-92
2022/03/29 01:19:43;;;;;;;8.23;5.77;;;10.70;47.70;11.00;96181.00;;;;4975015;28;20301;-91
2022/03/29 01:22:13;;;;;;;8.33;5.93;;;10.80;47.70;11.00;96172.00;;;;4978159;28;20672;-93
2022/03/29 01:24:46;;;;;;;6.60;5.80;;;10.70;47.70;11.00;96172.00;;;;4976413;28;20273;-91
2022/03/29 01:27:14;;;;;;;7.40;5.73;;;10.70;47.70;10.90;96167.00;;;;4976554;28;20215;-92
2022/03/29 01:29:43;;;;;;;8.33;5.63;;;10.70;47.70;10.90;96170.00;;;;4977251;28;20254;-92
2022/03/29 01:32:12;;;;;;;9.30;6.17;;;10.70;47.70;10.90;96165.00;;;;4978061;28;20207;-92
2022/03/29 01:34:43;;;;;;;7.90;5.60;;;11.00;47.90;10.90;96151.00;;;;4975504;28;20207;-92
2022/03/29 01:37:12;;;;;;;8.87;6.07;;;10.70;48.50;10.90;96143.00;;;;4977541;28;20210;-93
2022/03/29 01:39:40;;;;;;;10.13;6.23;;;10.60;48.00;10.80;96153.00;;;;4975818;28;20746;-93
2022/03/29 01:42:08;;;;;;;8.40;5.73;;;10.60;48.00;10.90;96148.00;;;;4976209;28;20234;-92
2022/03/29 01:44:36;;;;;;;10.90;6.50;;;10.60;48.00;10.90;96136.00;;;;4978744;28;20247;-92
2022/03/29 01:47:03;;;;;;;8.77;5.80;;;10.60;48.00;10.90;96138.00;;;;4990626;28;20257;-93
2022/03/29 01:49:34;;;;;;;8.03;5.97;;;10.60;48.00;10.90;96130.00;;;;4978544;28;20304;-92
2022/03/29 01:52:03;;;;;;;8.40;6.00;;;10.60;47.90;10.90;96139.00;;;;4976851;28;20203;-94
2022/03/29 01:54:33;;;;;;;9.17;5.97;;;10.70;47.80;10.90;96137.00;;;;4976921;28;20207;-92
2022/03/29 01:57:01;;;;;;;8.60;5.87;;;10.20;47.60;10.90;96112.00;;;;4976606;28;20203;-92
2022/03/29 02:00:30;;;;;;;8.23;6.23;;;10.60;47.80;11.00;96119.00;;;;4977011;28;20223;-92
2022/03/29 02:02:17;;;;;;;9.20;5.83;;;10.60;47.60;11.00;96116.00;;;;4977974;28;20207;-92
2022/03/29 02:04:45;;;;;;;6.43;5.60;;;10.60;47.50;11.00;96097.00;;;;4980857;28;20219;-92
2022/03/29 02:07:16;;;;;;;9.73;6.40;;;11.20;47.70;11.00;96115.00;;;;4982676;28;20211;-93
2022/03/29 02:09:46;;;;;;;8.77;6.10;;;10.70;47.60;10.90;96093.00;;;;4976527;28;20227;-92
2022/03/29 02:12:14;;;;;;;8.30;5.73;;;10.70;47.60;10.90;96094.00;;;;4977591;28;20702;-92
2022/03/29 02:14:41;;;;;;;7.60;5.47;;;12.00;48.10;10.90;96101.00;;;;4975954;28;20237;-93
2022/03/29 02:17:09;;;;;;;7.90;5.73;;;11.50;47.90;10.90;96105.00;;;;4963293;29;20192;-93
2022/03/29 02:19:36;;;;;;;8.13;5.80;;;10.60;47.60;10.90;96106.00;;;;4963570;28;20232;-92
2022/03/29 02:22:04;;;;;;;8.93;5.80;;;10.50;47.50;10.80;96101.00;;;;4956159;28;20228;-92
2022/03/29 02:24:32;;;;;;;8.73;6.17;;;10.60;47.60;10.80;96100.00;;;;4955379;29;20753;-92
2022/03/29 02:27:01;;;;;;;8.27;5.77;;;10.60;47.60;10.80;96094.00;;;;4955949;28;20261;-92
2022/03/29 02:29:28;;;;;;;9.17;6.73;;;11.00;48.00;10.70;96082.00;;;;4963701;28;20228;-93
2022/03/29 02:31:55;;;;;;;9.10;5.93;;;10.50;47.80;10.70;96077.00;;;;4960952;28;20730;-93
2022/03/29 02:34:23;;;;;;;6.97;5.77;;;11.50;48.20;10.70;96080.00;;;;4960870;28;20257;-92
2022/03/29 02:36:50;;;;;;;8.47;5.90;;;10.50;47.80;10.70;96073.00;;;;4958326;28;20287;-92
2022/03/29 02:39:18;;;;;;;7.50;5.90;;;10.50;47.80;10.70;96078.00;;;;4960083;28;20298;-92
2022/03/29 02:41:45;;;;;;;7.83;5.83;;;10.40;47.90;10.60;96058.00;;;;4959505;28;20223;-93
2022/03/29 02:44:14;;;;;;;8.97;6.20;;;10.40;47.90;10.60;96068.00;;;;4957821;29;20274;-91
2022/03/29 02:46:41;;;;;;;7.17;5.50;;;10.40;48.10;10.60;96080.00;;;;4952964;28;20218;-92
2022/03/29 02:49:09;;;;;;;7.97;5.70;;;10.30;48.10;10.60;96079.00;;;;4952941;28;20223;-91
2022/03/29 02:51:36;;;;;;;7.90;6.00;;;10.40;48.20;10.50;96080.00;;;;4952850;28;20576;-91
2022/03/29 02:54:05;;;;;;;8.73;5.83;;;10.30;48.20;10.50;96066.00;;;;4953042;28;20204;-91
2022/03/29 02:56:32;;;;;;;7.73;5.83;;;10.30;48.30;10.50;96048.00;;;;4961220;29;20204;-93
2022/03/29 02:59:04;;;;;;;9.23;5.87;;;10.20;48.30;10.50;96054.00;;;;4965687;28;20219;-94
2022/03/29 03:01:33;;;;;;;6.73;5.30;;;10.40;48.60;10.50;96064.00;;;;4973167;28;20219;-92
2022/03/29 03:04:00;;;;;;;8.20;6.43;;;10.20;48.50;10.40;96071.00;;;;4956616;29;20688;-91
2022/03/29 03:06:27;;;;;;;7.87;5.53;;;10.30;48.50;10.40;96065.00;;;;4952757;28;20211;-93
2022/03/29 03:08:54;;;;;;;8.77;6.77;;;10.20;48.50;10.40;96060.00;;;;4952818;28;20713;-91
2022/03/29 03:11:22;;;;;;;8.50;6.27;;;10.30;48.60;10.40;96068.00;;;;4952981;28;20223;-92
2022/03/29 03:13:50;;;;;;;8.27;5.97;;;10.40;48.70;10.40;96058.00;;;;4952931;28;20216;-92
2022/03/29 03:16:17;;;;;;;6.20;5.60;;;10.40;48.80;10.30;96059.00;;;;4953206;29;20295;-92
2022/03/29 03:18:46;;;;;;;8.20;5.77;;;10.20;48.70;10.30;96054.00;;;;4956857;28;20228;-92
2022/03/29 03:21:13;;;;;;;8.47;5.83;;;10.10;48.70;10.30;96053.00;;;;4955226;28;20208;-92
2022/03/29 03:23:40;;;;;;;8.40;6.40;;;10.30;48.90;10.30;96048.00;;;;4952924;29;20227;-91
2022/03/29 03:26:07;;;;;;;9.23;6.37;;;10.50;49.00;10.30;96049.00;;;;4952766;29;20234;-92
2022/03/29 03:28:35;;;;;;;8.27;6.17;;;10.10;48.90;10.20;96049.00;;;;4953924;28;20607;-91
2022/03/29 03:31:02;;;;;;;9.93;6.57;;;10.60;49.20;10.20;96049.00;;;;4954935;28;20594;-92
2022/03/29 03:33:29;;;;;;;9.33;6.70;;;10.00;49.00;10.20;96045.00;;;;4953988;28;20669;-92
2022/03/29 03:35:58;;;;;;;11.37;6.77;;;11.50;49.70;10.20;96038.00;;;;4954295;28;20204;-92
2022/03/29 03:38:25;;;;;;;7.80;6.53;;;10.60;49.30;10.20;96043.00;;;;4953935;28;20200;-92
2022/03/29 03:40:53;;;;;;;10.40;7.10;;;9.90;48.90;10.10;96037.00;;;;4953195;28;20262;-92
2022/03/29 03:43:20;;;;;;;8.97;6.53;;;10.10;49.10;10.10;96050.00;;;;4953151;28;20203;-91
2022/03/29 03:45:52;;;;;;;10.17;6.63;;;10.80;49.40;10.10;96045.00;;;;4954420;28;20307;-92
2022/03/29 03:48:19;;;;;;;10.67;6.80;;;9.60;49.10;10.10;96031.00;;;;4954981;29;20203;-93
2022/03/29 03:50:47;;;;;;;7.43;6.03;;;10.40;49.50;10.00;96004.00;;;;4954198;29;20199;-92
2022/03/29 03:53:17;;;;;;;10.03;6.47;;;10.60;49.60;10.10;96012.00;;;;4954012;28;20287;-94
2022/03/29 03:55:44;;;;;;;11.23;6.73;;;10.20;49.50;10.10;96011.00;;;;4952803;28;20200;-92
2022/03/29 03:58:13;;;;;;;8.17;6.37;;;9.90;49.40;10.10;96005.00;;;;4952389;29;20210;-92
2022/03/29 04:00:41;;;;;;;9.03;6.43;;;9.80;49.30;10.10;96014.00;;;;4952291;28;20918;-92
2022/03/29 04:03:09;;;;;;;7.10;5.63;;;10.30;49.60;10.10;96000.00;;;;4953461;28;20220;-92
2022/03/29 04:05:37;;;;;;;9.53;6.90;;;9.80;49.20;10.00;95998.00;;;;4952640;29;20724;-92
2022/03/29 04:08:06;;;;;;;9.13;6.47;;;10.00;49.40;10.00;96014.00;;;;4953045;28;20262;-93
2022/03/29 04:10:34;;;;;;;7.70;6.37;;;9.80;49.30;10.00;96002.00;;;;4953147;28;20216;-92
2022/03/29 04:13:02;;;;;;;9.07;6.83;;;9.80;49.40;10.00;96002.00;;;;4953169;29;20670;-92
2022/03/29 04:15:30;;;;;;;7.60;6.43;;;9.80;49.40;10.00;95990.00;;;;4956726;28;20219;-92
2022/03/29 04:18:00;;;;;;;9.30;7.00;;;9.80;49.60;9.90;95985.00;;;;4966979;28;20638;-92
2022/03/29 04:20:29;;;;;;;10.00;6.60;;;10.20;49.80;9.90;95994.00;;;;4953713;28;20580;-93
2022/03/29 04:23:09;;;;;;;8.67;6.73;;;10.50;50.00;10.00;95985.00;;;;4953213;28;20212;-92
2022/03/29 04:29:23;;;;;;;9.03;6.37;;;9.70;49.90;9.90;95992.00;;;;4952418;28;20276;-92
2022/03/29 04:31:52;;;;;;;8.83;6.03;;;10.70;50.00;9.90;95986.00;;;;4953140;28;20204;-91
2022/03/29 04:34:19;;;;;;;8.57;6.37;;;10.40;49.90;9.90;95979.00;;;;4953911;29;20769;-93
2022/03/29 04:36:46;;;;;;;7.77;6.37;;;9.80;49.70;9.90;95991.00;;;;4952681;28;20227;-92
2022/03/29 04:39:27;;;;;;;12.17;7.10;;;9.70;49.80;9.80;95986.00;;;;4960411;29;20228;-93
2022/03/29 04:45:03;;;;;;;12.77;6.93;;;9.60;49.80;9.80;95966.00;;;;4962768;29;20265;-94
2022/03/29 04:47:41;;;;;;;10.50;6.90;;;9.60;49.80;9.70;95973.00;;;;4960545;29;20235;-94
2022/03/29 04:53:13;;;;;;;8.17;6.57;;;9.50;49.80;9.70;95959.00;;;;4953387;28;20200;-93
2022/03/29 04:55:42;;;;;;;9.83;6.60;;;9.60;49.90;9.60;95959.00;;;;4955103;28;20214;-93
2022/03/29 04:58:09;;;;;;;9.50;6.40;;;9.50;50.10;9.70;95956.00;;;;4956133;29;20212;-92
2022/03/29 05:00:38;;;;;;;10.17;6.70;;;9.50;50.10;9.70;95949.00;;;;4955868;29;20244;-92
2022/03/29 05:03:12;;;;;;;9.67;6.37;;;9.50;50.20;9.70;95957.00;;;;4961352;28;20661;-94
2022/03/29 05:08:25;;;;;;;9.30;6.80;;;9.50;50.40;9.70;95970.00;;;;4968989;28;20193;-94
2022/03/29 05:11:38;;;;;;;9.67;6.73;;;10.90;51.20;9.70;95953.00;;;;4959104;29;20657;-93
2022/03/29 05:14:54;;;;;;;7.87;6.47;;;9.50;50.80;9.70;95962.00;;;;4959884;28;20210;-93
2022/03/29 05:17:58;;;;;;;7.93;6.10;;;9.50;50.80;9.70;95977.00;;;;4962732;28;20227;-93
2022/03/29 05:20:26;;;;;;;10.73;7.13;;;9.50;50.90;9.70;95965.00;;;;4959309;28;20243;-85
2022/03/29 05:22:55;;;;;;;10.30;7.10;;;9.50;50.70;9.70;95964.00;;;;4973554;28;20203;-86
2022/03/29 05:25:24;;;;;;;8.40;6.73;;;9.50;51.00;9.80;95967.00;;;;4972973;28;20245;-86
2022/03/29 05:27:53;;;;;;;10.30;7.10;;;9.60;51.10;9.80;95961.00;;;;4972090;28;20210;-85
2022/03/29 05:30:21;;;;;;;12.23;7.30;;;9.50;51.10;9.90;95970.00;;;;4971977;28;20219;-85
2022/03/29 05:32:50;;;;;;;11.43;7.33;;;9.50;51.20;9.90;95962.00;;;;4987016;28;20584;-85
2022/03/29 05:35:19;;;;;;;10.10;6.93;;;9.60;51.20;9.90;95971.00;;;;4972558;28;20208;-86
2022/03/29 05:37:46;;;;;;;10.53;6.07;;;9.60;51.30;10.00;95961.00;;;;4972521;28;20192;-86
2022/03/29 05:40:13;;;;;;;11.07;6.93;;;9.70;51.40;10.00;95956.00;;;;4973201;23;20224;-81
2022/03/29 05:42:40;;;;;;;8.80;6.67;;;9.60;51.50;10.00;95954.00;;;;4957420;29;20218;-81
2022/03/29 05:45:11;;;;;;;11.00;6.73;;;9.60;51.50;10.00;95946.00;;;;4957485;29;20243;-81
2022/03/29 05:50:27;;;;;;;10.03;7.00;;;9.70;51.80;10.10;95960.00;;;;5006470;28;20298;-81
2022/03/29 05:52:54;;;;;;;10.80;7.23;;;9.70;51.90;10.20;95956.00;;;;4949651;28;20283;-81
2022/03/29 05:55:22;;;;;;;12.23;6.70;;;9.80;51.90;10.20;95954.00;;;;4957240;28;20695;-82
2022/03/29 05:57:49;;;;;;;10.57;6.53;;;9.80;51.90;10.30;95948.00;;;;4958118;28;20214;-81
2022/03/29 06:00:18;;;;;;;11.17;6.73;;;9.80;51.90;10.30;95947.00;;;;4956992;28;20278;-81
2022/03/29 06:02:45;;;;;;;10.17;7.33;;;9.90;52.00;10.40;95951.00;;;;4956995;28;20192;-81
2022/03/29 06:05:12;;;;;;;9.17;6.83;;;9.90;52.10;10.40;95953.00;;;;4956647;28;20220;-81
2022/03/29 06:07:41;;;;;;;10.50;7.20;;;10.00;52.30;10.50;95950.00;;;;4955932;29;20539;-81
2022/03/29 06:10:09;;;;;;;11.20;7.47;;;10.00;52.50;10.60;95961.00;;;;4955666;28;20217;-82
2022/03/29 06:12:37;;;;;;;9.60;7.43;;;10.10;52.60;10.70;95961.00;;;;4956646;29;20196;-81
2022/03/29 06:15:08;;;;;;;11.73;7.37;;;10.10;52.50;10.80;95973.00;;;;4956034;28;20208;-81
2022/03/29 06:17:36;;;;;;;14.20;7.73;;;10.20;52.50;10.90;95974.00;;;;4967816;28;20204;-81
2022/03/29 06:20:06;;;;;;;12.33;8.60;;;10.30;52.40;11.00;95970.00;;;;4959919;28;20645;-81
2022/03/29 06:22:37;;;;;;;11.60;8.13;;;10.40;52.50;11.10;95972.00;;;;4953210;29;20204;-83
2022/03/29 06:25:08;;;;;;;11.87;8.53;;;10.50;52.60;11.20;95976.00;;;;4957920;28;20685;-81
2022/03/29 06:27:35;;;;;;;14.53;8.33;;;10.60;52.70;11.20;95972.00;;;;4955452;28;20236;-80
2022/03/29 06:30:04;;;;;;;10.73;8.33;;;10.60;52.60;11.30;95970.00;;;;4952770;28;20306;-81
2022/03/29 06:32:32;;;;;;;9.73;7.77;;;10.70;52.60;11.40;95958.00;;;;4955192;28;20202;-81
2022/03/29 06:34:59;;;;;;;11.50;7.83;;;10.80;52.50;11.50;95970.00;;;;4958057;28;20215;-81
2022/03/29 06:37:26;;;;;;;10.33;7.47;;;10.90;52.50;11.50;95959.00;;;;4957205;28;20685;-81
2022/03/29 06:39:53;;;;;;;9.70;7.07;;;11.00;52.30;11.60;95966.00;;;;4957481;29;20242;-81
2022/03/29 06:42:22;;;;;;;12.43;7.80;;;11.10;52.10;11.70;95967.00;;;;4958022;29;20196;-81
2022/03/29 06:44:49;;;;;;;10.07;7.40;;;11.10;52.20;11.70;95970.00;;;;4957179;28;20215;-81
2022/03/29 06:47:16;;;;;;;14.77;8.23;;;11.20;51.90;11.80;95974.00;;;;4957967;29;20188;-81
2022/03/29 06:49:43;;;;;;;9.40;7.20;;;11.30;51.70;11.90;95963.00;;;;4969275;28;20224;-81
2022/03/29 06:52:11;;;;;;;10.50;7.47;;;11.30;51.50;12.00;95963.00;;;;4942309;28;20587;-81
2022/03/29 06:54:38;;;;;;;9.93;7.53;;;11.40;51.60;12.00;95963.00;;;;4950490;28;20201;-81
2022/03/29 06:57:06;;;;;;;18.27;7.57;;;11.50;51.60;12.10;95964.00;;;;4993171;28;20226;-81
2022/03/29 06:59:34;;;;;;;8.60;6.57;;;11.50;51.20;12.20;95960.00;;;;4959726;28;20586;-81
2022/03/29 07:02:01;;;;;;;11.47;7.60;;;11.60;51.20;12.30;95958.00;;;;4958097;29;20203;-81
2022/03/29 07:04:28;;;;;;;12.03;7.13;;;11.70;51.20;12.40;95961.00;;;;4945120;28;20285;-81
2022/03/29 07:06:55;;;;;;;12.03;7.63;;;11.80;51.40;12.50;95960.00;;;;4954287;29;20192;-81
2022/03/29 07:12:07;;;;;;;7.73;6.77;;;12.00;51.20;12.70;95962.00;;;;4958164;29;20242;-81
2022/03/29 07:14:36;;;;;;;10.13;6.13;;;12.10;51.10;12.80;95962.00;;;;4950820;29;20199;-81
2022/03/29 07:17:05;;;;;;;10.10;6.80;;;12.20;51.10;12.90;95972.00;;;;4958085;28;20192;-81
2022/03/29 07:19:32;;;;;;;9.53;7.20;;;12.40;51.10;13.00;95965.00;;;;4957863;28;20579;-81
2022/03/29 07:21:59;;;;;;;10.50;6.63;;;12.50;50.90;13.10;95966.00;;;;4958131;28;20239;-81
2022/03/29 07:24:26;;;;;;;9.33;6.93;;;12.60;50.80;13.30;95960.00;;;;4977578;28;20206;-81
2022/03/29 07:26:53;;;;;;;9.53;6.57;;;12.70;50.70;13.40;95958.00;;;;4978319;28;20224;-81
2022/03/29 07:29:20;;;;;;;8.97;6.37;;;12.80;50.60;13.50;95971.00;;;;4952543;28;20216;-81
2022/03/29 07:31:49;;;;;;;9.93;7.03;;;12.90;50.60;13.70;95973.00;;;;4953277;29;20197;-81
2022/03/29 07:34:16;;;;;;;8.60;6.77;;;13.10;50.70;13.80;95967.00;;;;4952066;29;20208;-81
2022/03/29 07:36:43;;;;;;;9.73;6.97;;;13.20;50.80;14.00;95960.00;;;;4956954;29;20200;-81
2022/03/29 07:39:10;;;;;;;8.13;6.57;;;13.40;50.60;14.20;95970.00;;;;4957403;28;20228;-81
2022/03/29 07:41:37;;;;;;;9.67;6.70;;;13.60;50.60;14.40;95966.00;;;;4949247;28;20196;-81
2022/03/29 07:44:05;;;;;;;12.40;7.23;;;13.70;50.60;14.60;95966.00;;;;4949559;28;20195;-81
2022/03/29 07:46:32;;;;;;;9.70;6.70;;;13.90;50.20;14.90;95970.00;;;;4956183;28;20230;-81
2022/03/29 07:49:01;;;;;;;10.53;7.20;;;14.10;50.10;15.10;95970.00;;;;4956809;28;20224;-81
2022/03/29 07:51:27;;;;;;;10.50;6.57;;;14.30;50.30;15.30;95962.00;;;;4955622;28;20196;-81
2022/03/29 07:53:55;;;;;;;12.13;7.07;;;14.50;50.20;15.50;95960.00;;;;4958248;29;20203;-81
2022/03/29 07:56:22;;;;;;;8.57;6.47;;;14.70;50.10;15.80;95972.00;;;;4958103;28;20256;-80
2022/03/29 07:58:49;;;;;;;8.23;6.47;;;14.90;49.80;16.00;95962.00;;;;4957125;28;20796;-81
2022/03/29 08:01:16;;;;;;;9.93;7.07;;;15.10;49.60;16.30;95964.00;;;;4957083;28;20188;-81
2022/03/29 08:03:43;;;;;;;10.33;6.73;;;15.40;49.40;16.50;95967.00;;;;4957570;29;20223;-81
2022/03/29 08:06:11;;;;;;;7.73;6.13;;;15.60;49.40;16.80;95966.00;;;;4956637;29;20216;-80
2022/03/29 08:08:38;;;;;;;8.97;6.80;;;15.80;50.10;17.00;95963.00;;;;4957352;28;20228;-81
2022/03/29 08:11:05;;;;;;;10.20;6.57;;;16.10;49.90;17.30;95980.00;;;;4957367;28;20192;-81
2022/03/29 08:13:32;;;;;;;8.57;6.43;;;16.20;49.00;17.50;95967.00;;;;4959088;28;20230;-81
2022/03/29 08:16:01;;;;;;;10.07;7.00;;;16.50;48.70;17.70;95966.00;;;;4960764;28;20576;-81
2022/03/29 08:18:28;;;;;;;8.53;6.57;;;16.70;48.50;17.90;95967.00;;;;4960226;28;20204;-81
2022/03/29 08:20:56;;;;;;;9.93;7.17;;;16.90;48.20;18.10;95964.00;;;;4960829;28;20188;-81
2022/03/29 08:23:26;;;;;;;8.97;6.67;;;17.10;48.00;18.30;95961.00;;;;4954485;28;20516;-81
2022/03/29 08:25:53;;;;;;;9.83;6.53;;;17.30;47.50;18.50;95967.00;;;;5025621;28;20470;-81
2022/03/29 08:28:21;;;;;;;9.03;6.67;;;17.50;47.00;18.70;95965.00;;;;5006549;28;20211;-81
2022/03/29 08:30:48;;;;;;;11.67;6.60;;;17.70;46.90;18.80;95963.00;;;;4955419;29;20200;-81
2022/03/29 08:33:15;;;;;;;8.23;6.50;;;17.80;46.60;19.00;95956.00;;;;4960394;28;20220;-81
2022/03/29 08:35:45;;;;;;;8.83;6.47;;;18.10;46.20;19.20;95951.00;;;;4958625;28;20200;-81
2022/03/29 08:38:12;;;;;;;11.37;7.07;;;18.20;45.70;19.40;95957.00;;;;4960833;28;20196;-81
2022/03/29 08:40:45;;;;;;;8.63;6.97;;;18.40;44.90;19.60;95953.00;;;;4959629;28;20220;-80
2022/03/29 08:43:15;;;;;;;9.60;6.43;;;18.60;44.00;19.80;95949.00;;;;4958819;28;20193;-81
2022/03/29 08:45:49;;;;;;;8.47;6.37;;;18.80;44.20;20.00;95950.00;;;;4958663;29;20262;-81
2022/03/29 08:48:16;;;;;;;9.10;6.63;;;19.00;44.00;20.20;95963.00;;;;4959169;28;20196;-81
2022/03/29 08:50:45;;;;;;;8.40;6.67;;;19.10;43.70;20.30;95966.00;;;;4958606;28;20569;-81
2022/03/29 08:53:14;;;;;;;10.73;7.30;;;19.40;43.20;20.50;95962.00;;;;4958527;28;20192;-80
2022/03/29 08:55:44;;;;;;;8.30;6.17;;;19.60;43.00;20.60;95966.00;;;;4959365;29;20258;-80
2022/03/29 08:58:11;;;;;;;7.97;6.27;;;19.80;43.00;20.80;95967.00;;;;4958657;28;20216;-81
2022/03/29 09:00:38;;;;;;;9.97;7.00;;;20.00;43.00;21.00;95959.00;;;;4958383;28;20708;-81
2022/03/29 09:03:05;;;;;;;8.13;6.93;;;20.30;42.50;21.20;95962.00;;;;4958735;28;20667;-81
2022/03/29 09:05:32;;;;;;;8.00;6.87;;;20.60;42.40;21.40;95956.00;;;;4958118;28;20227;-81
2022/03/29 09:08:03;;;;;;;8.13;6.87;;;20.80;42.10;21.60;95953.00;;;;4958747;28;20195;-80
2022/03/29 09:10:43;;;;;;;10.27;6.93;;;21.10;41.70;21.90;95950.00;;;;4958506;28;20315;-81
2022/03/29 09:13:23;;;;;;;9.17;7.17;;;21.40;40.70;22.10;95945.00;;;;4939829;28;20626;-81
2022/03/29 09:15:53;;;;;;;8.63;6.83;;;21.80;40.30;22.30;95950.00;;;;4947534;29;20242;-80
2022/03/29 09:18:20;;;;;;;8.10;6.23;;;22.10;40.70;22.50;95949.00;;;;4958157;28;20197;-81
2022/03/29 09:21:05;;;;;;;9.00;6.23;;;22.40;40.50;22.70;95944.00;;;;4957440;28;20204;-80
2022/03/29 09:23:34;;;;;;;7.30;6.37;;;22.70;40.30;23.00;95948.00;;;;4943167;28;20200;-81
2022/03/29 09:26:03;;;;;;;9.27;6.30;;;23.10;40.20;23.30;95940.00;;;;4952452;29;20231;-81
2022/03/29 09:28:37;;;;;;;8.30;6.80;;;23.40;39.50;23.60;95954.00;;;;4964288;28;20201;-80
2022/03/29 09:31:19;;;;;;;9.47;6.63;;;23.70;38.70;23.80;95945.00;;;;4953822;29;20197;-81
2022/03/29 09:33:46;;;;;;;7.73;5.87;;;24.00;38.30;24.10;95941.00;;;;4951547;29;20562;-81
2022/03/29 09:36:14;;;;;;;9.30;7.43;;;24.30;38.60;24.30;95939.00;;;;4966569;28;20199;-80
2022/03/29 09:38:45;;;;;;;9.33;7.00;;;24.60;36.90;24.50;95939.00;;;;4947545;28;20292;-80
2022/03/29 09:41:26;;;;;;;11.23;7.67;;;24.80;36.10;24.60;95941.00;;;;4961061;28;20227;-81
2022/03/29 09:44:00;;;;;;;10.80;7.60;;;24.90;35.20;24.60;95945.00;;;;4944306;28;20211;-81
2022/03/29 09:46:28;;;;;;;10.00;7.10;;;24.90;35.10;24.60;95940.00;;;;4960248;28;20222;-81
2022/03/29 09:49:00;;;;;;;11.47;6.83;;;24.90;35.50;24.60;95935.00;;;;4959813;28;20293;-81
2022/03/29 09:51:28;;;;;;;11.23;7.63;;;24.80;35.40;24.70;95933.00;;;;4959322;28;20288;-81
2022/03/29 09:53:58;;;;;;;10.80;7.77;;;24.70;34.90;24.60;95922.00;;;;4959421;29;20431;-81
2022/03/29 09:56:30;;;;;;;11.10;7.17;;;24.60;33.70;24.70;95926.00;;;;4956253;28;20719;-81
2022/03/29 09:59:07;;;;;;;8.30;6.53;;;24.60;34.70;24.70;95924.00;;;;4959346;28;20311;-81
2022/03/29 10:01:46;;;;;;;9.53;7.57;;;24.50;34.70;24.70;95923.00;;;;4958067;28;20205;-81
2022/03/29 10:04:16;;;;;;;7.30;6.33;;;24.40;34.70;24.70;95910.00;;;;4958082;28;20217;-81
2022/03/29 10:06:44;;;;;;;10.77;7.30;;;24.40;34.90;24.80;95907.00;;;;4959008;28;20226;-81
2022/03/29 10:09:29;;;;;;;7.43;6.53;;;24.40;34.60;24.90;95898.00;;;;4957768;28;20658;-81
2022/03/29 10:12:03;;;;;;;10.43;7.57;;;24.50;34.90;24.90;95900.00;;;;4949887;28;20199;-81
2022/03/29 10:14:34;;;;;;;9.53;6.93;;;24.60;34.70;24.90;95892.00;;;;4957757;28;20202;-81
2022/03/29 10:17:02;;;;;;;10.13;7.13;;;24.70;34.60;25.00;95898.00;;;;4958406;28;20253;-80
2022/03/29 10:19:30;;;;;;;9.63;7.47;;;24.80;35.30;25.00;95895.00;;;;4958064;28;20603;-81
2022/03/29 10:21:58;;;;;;;10.27;7.60;;;24.90;34.20;25.00;95885.00;;;;4957862;29;20196;-81
2022/03/29 10:24:28;;;;;;;9.40;7.03;;;25.00;34.40;25.00;95882.00;;;;4958867;28;20301;-81
2022/03/29 10:27:01;;;;;;;7.80;6.27;;;25.10;34.10;25.10;95881.00;;;;4958679;28;20220;-81
2022/03/29 10:29:30;;;;;;;8.47;6.63;;;25.20;34.20;25.10;95875.00;;;;4958573;28;20241;-81
2022/03/29 10:32:01;;;;;;;10.20;7.30;;;25.30;34.20;25.20;95877.00;;;;4959108;28;20214;-81
2022/03/29 10:34:30;;;;;;;10.70;7.40;;;25.40;33.60;25.30;95860.00;;;;4962982;28;20271;-82
2022/03/29 10:37:16;;;;;;;9.10;7.23;;;25.40;33.20;25.30;95867.00;;;;4962036;28;20208;-81
2022/03/29 10:39:56;;;;;;;9.83;7.03;;;25.40;32.40;25.30;95859.00;;;;4963607;28;20238;-81
2022/03/29 10:42:38;;;;;;;10.10;6.43;;;25.50;32.80;25.40;95865.00;;;;4960636;28;20192;-82
2022/03/29 10:45:19;;;;;;;10.57;7.40;;;25.50;32.80;25.50;95865.00;;;;4954464;28;20623;-82
2022/03/29 10:47:49;;;;;;;8.83;6.97;;;25.50;32.50;25.50;95861.00;;;;4954038;29;20224;-81
2022/03/29 10:50:17;;;;;;;9.43;6.73;;;25.60;32.50;25.60;95866.00;;;;4960009;28;20242;-82
2022/03/29 10:52:47;;;;;;;9.97;7.90;;;25.50;32.30;25.60;95860.00;;;;4960337;28;20189;-82
2022/03/29 10:55:25;;;;;;;10.50;7.43;;;25.50;31.10;25.40;95855.00;;;;4959825;28;20294;-82
2022/03/29 10:58:14;;;;;;;8.87;7.00;;;25.40;31.30;25.30;95860.00;;;;4957553;29;20625;-82
2022/03/29 11:00:44;;;;;;;8.23;7.03;;;25.20;30.70;25.20;95853.00;;;;4961767;28;20263;-82
2022/03/29 11:03:14;;;;;;;7.87;6.40;;;25.10;31.30;25.10;95860.00;;;;4959151;28;20192;-81
2022/03/29 11:06:08;;;;;;;8.17;6.60;;;25.00;31.40;25.10;95856.00;;;;4961452;28;20600;-82
2022/03/29 11:08:37;;;;;;;9.50;7.43;;;24.80;31.20;25.00;95852.00;;;;4953918;28;20225;-81
2022/03/29 11:11:07;;;;;;;10.30;7.77;;;24.70;31.50;25.00;95843.00;;;;4959254;29;20239;-82
2022/03/29 11:13:38;;;;;;;8.83;7.47;;;24.60;31.30;25.00;95844.00;;;;4960059;28;20545;-82
2022/03/29 11:16:31;;;;;;;9.73;6.67;;;24.50;31.30;25.00;95840.00;;;;4957484;28;20666;-82
2022/03/29 11:19:00;;;;;;;8.90;6.63;;;24.50;31.10;25.00;95834.00;;;;4959063;29;20704;-82
2022/03/29 11:21:40;;;;;;;11.27;7.50;;;24.40;31.70;25.00;95836.00;;;;4955746;28;20195;-82
2022/03/29 11:24:13;;;;;;;8.80;6.63;;;24.40;31.80;25.10;95833.00;;;;4958366;28;20217;-82
2022/03/29 11:26:56;;;;;;;13.23;6.93;;;24.40;31.60;25.10;95832.00;;;;4957443;28;20231;-82